sensor_id;sensor_type;location;lat;lon;timestamp;P1;durP1;ratioP1;P2;durP2;ratioP2
35679;SDS011;21803;53.586;10.040;2023-03-26T05:02:02;2.03;;;0.47;;
35679;SDS011;21803;53.586;10.040;2023-03-26T05:04:29;0.80;;;0.45;;
35679;SDS011;21803;53.586;10.040;2023-03-26T05:06:57;0.63;;;0.38;;
35679;SDS011;21803;53.586;10.040;2023-03-26T05:09:24;0.25;;;0.20;;
35679;SDS011;21803;53.586;10.040;2023-03-26T05:11:50;0.57;;;0.38;;
35679;SDS011;21803;53.586;10.040;2023-03-26T05:14:16;0.47;;;0.35;;
35679;SDS011;21803;53.586;10.040;2023-03-26T05:16:43;0.70;;;0.45;;
35679;SDS011;21803;53.586;10.040;2023-03-26T05:19:10;0.98;;;0.50;;
35679;SDS011;21803;53.586;10.040;2023-03-26T05:21:36;0.80;;;0.50;;
35679;SDS011;21803;53.586;10.040;2023-03-26T05:24:02;0.50;;;0.30;;
35679;SDS011;21803;53.586;10.040;2023-03-26T05:26:29;0.90;;;0.40;;
35679;SDS011;21803;53.586;10.040;2023-03-26T05:28:55;0.82;;;0.40;;
35679;SDS011;21803;53.586;10.040;2023-03-26T05:31:21;0.52;;;0.32;;
35679;SDS011;21803;53.586;10.040;2023-03-26T05:33:46;0.55;;;0.30;;
35679;SDS011;21803;53.586;10.040;2023-03-26T05:36:13;1.00;;;0.47;;
35679;SDS011;21803;53.586;10.040;2023-03-26T05:38:40;0.60;;;0.40;;
35679;SDS011;21803;53.586;10.040;2023-03-26T05:41:11;0.60;;;0.40;;
35679;SDS011;21803;53.586;10.040;2023-03-26T05:43:37;0.60;;;0.30;;
35679;SDS011;21803;53.586;10.040;2023-03-26T05:46:02;0.50;;;0.50;;
35679;SDS011;21803;53.586;10.040;2023-03-26T05:48:28;0.70;;;0.50;;
35679;SDS011;21803;53.586;10.040;2023-03-26T05:50:54;0.32;;;0.32;;
35679;SDS011;21803;53.586;10.040;2023-03-26T05:53:21;0.55;;;0.30;;
35679;SDS011;21803;53.586;10.040;2023-03-26T05:55:48;1.25;;;0.40;;
35679;SDS011;21803;53.586;10.040;2023-03-26T05:58:25;1.52;;;0.30;;
35679;SDS011;21803;53.586;10.040;2023-03-26T06:00:58;0.40;;;0.30;;
35679;SDS011;21803;53.586;10.040;2023-03-26T06:03:32;0.85;;;0.40;;
35679;SDS011;21803;53.586;10.040;2023-03-26T06:05:59;0.50;;;0.40;;
35679;SDS011;21803;53.586;10.040;2023-03-26T06:08:25;1.58;;;0.47;;
35679;SDS011;21803;53.586;10.040;2023-03-26T06:10:56;0.82;;;0.30;;
35679;SDS011;21803;53.586;10.040;2023-03-26T06:13:23;0.52;;;0.40;;
35679;SDS011;21803;53.586;10.040;2023-03-26T06:15:49;1.23;;;0.40;;
35679;SDS011;21803;53.586;10.040;2023-03-26T06:18:15;0.55;;;0.40;;
35679;SDS011;21803;53.586;10.040;2023-03-26T06:20:41;2.92;;;0.50;;
35679;SDS011;21803;53.586;10.040;2023-03-26T06:23:07;0.40;;;0.30;;
35679;SDS011;21803;53.586;10.040;2023-03-26T06:25:33;0.52;;;0.40;;
35679;SDS011;21803;53.586;10.040;2023-03-26T06:27:58;0.52;;;0.43;;
35679;SDS011;21803;53.586;10.040;2023-03-26T06:30:24;0.45;;;0.30;;
35679;SDS011;21803;53.586;10.040;2023-03-26T06:32:49;0.60;;;0.30;;
35679;SDS011;21803;53.586;10.040;2023-03-26T06:35:15;0.70;;;0.50;;
35679;SDS011;21803;53.586;10.040;2023-03-26T06:37:41;0.68;;;0.30;;
35679;SDS011;21803;53.586;10.040;2023-03-26T06:40:07;0.85;;;0.43;;
35679;SDS011;21803;53.586;10.040;2023-03-26T06:42:32;0.98;;;0.32;;
35679;SDS011;21803;53.586;10.040;2023-03-26T06:44:58;0.77;;;0.50;;
35679;SDS011;21803;53.586;10.040;2023-03-26T06:47:23;0.32;;;0.30;;
35679;SDS011;21803;53.586;10.040;2023-03-26T06:49:49;0.22;;;0.22;;
35679;SDS011;21803;53.586;10.040;2023-03-26T06:52:15;0.70;;;0.32;;
35679;SDS011;21803;53.586;10.040;2023-03-26T06:54:40;0.45;;;0.30;;
35679;SDS011;21803;53.586;10.040;2023-03-26T06:57:06;0.52;;;0.30;;
35679;SDS011;21803;53.586;10.040;2023-03-26T06:59:31;0.57;;;0.30;;
35679;SDS011;21803;53.586;10.040;2023-03-26T07:01:57;0.77;;;0.40;;
35679;SDS011;21803;53.586;10.040;2023-03-26T07:04:22;0.50;;;0.43;;
35679;SDS011;21803;53.586;10.040;2023-03-26T07:06:48;0.90;;;0.40;;
35679;SDS011;21803;53.586;10.040;2023-03-26T07:09:13;0.50;;;0.28;;
35679;SDS011;21803;53.586;10.040;2023-03-26T07:11:39;0.80;;;0.40;;
35679;SDS011;21803;53.586;10.040;2023-03-26T07:14:04;0.20;;;0.20;;
35679;SDS011;21803;53.586;10.040;2023-03-26T07:16:30;0.77;;;0.32;;
35679;SDS011;21803;53.586;10.040;2023-03-26T07:18:55;0.40;;;0.32;;
35679;SDS011;21803;53.586;10.040;2023-03-26T07:21:21;0.63;;;0.40;;
35679;SDS011;21803;53.586;10.040;2023-03-26T07:23:47;0.38;;;0.30;;
35679;SDS011;21803;53.586;10.040;2023-03-26T07:28:46;0.55;;;0.40;;
35679;SDS011;21803;53.586;10.040;2023-03-26T07:34:07;0.55;;;0.30;;
35679;SDS011;21803;53.586;10.040;2023-03-26T07:37:03;1.10;;;0.50;;
35679;SDS011;21803;53.586;10.040;2023-03-26T07:39:57;0.98;;;0.30;;
35679;SDS011;21803;53.586;10.040;2023-03-26T07:42:52;1.20;;;0.32;;
35679;SDS011;21803;53.586;10.040;2023-03-26T07:45:41;0.85;;;0.30;;
35679;SDS011;21803;53.586;10.040;2023-03-26T07:48:20;0.88;;;0.50;;
35679;SDS011;21803;53.586;10.040;2023-03-26T07:50:52;0.80;;;0.43;;
35679;SDS011;21803;53.586;10.040;2023-03-26T07:53:18;0.80;;;0.30;;
35679;SDS011;21803;53.586;10.040;2023-03-26T08:01:20;0.45;;;0.22;;
35679;SDS011;21803;53.586;10.040;2023-03-26T08:04:20;0.70;;;0.32;;
35679;SDS011;21803;53.586;10.040;2023-03-26T08:06:51;0.93;;;0.57;;
35679;SDS011;21803;53.586;10.040;2023-03-26T08:09:32;0.85;;;0.50;;
35679;SDS011;21803;53.586;10.040;2023-03-26T08:17:32;0.63;;;0.43;;
35679;SDS011;21803;53.586;10.040;2023-03-26T08:22:35;0.60;;;0.40;;
35679;SDS011;21803;53.586;10.040;2023-03-26T08:30:25;1.30;;;0.50;;
35679;SDS011;21803;53.586;10.040;2023-03-26T08:32:53;1.85;;;0.50;;
35679;SDS011;21803;53.586;10.040;2023-03-26T08:35:20;0.52;;;0.30;;
35679;SDS011;21803;53.586;10.040;2023-03-26T08:37:45;0.52;;;0.40;;
35679;SDS011;21803;53.586;10.040;2023-03-26T08:40:11;1.38;;;0.50;;
35679;SDS011;21803;53.586;10.040;2023-03-26T08:43:08;1.38;;;0.55;;
35679;SDS011;21803;53.586;10.040;2023-03-26T08:45:56;1.40;;;0.50;;
35679;SDS011;21803;53.586;10.040;2023-03-26T08:51:24;0.98;;;0.40;;
35679;SDS011;21803;53.586;10.040;2023-03-26T08:54:11;1.00;;;0.40;;
35679;SDS011;21803;53.586;10.040;2023-03-26T09:00:05;0.57;;;0.50;;
35679;SDS011;21803;53.586;10.040;2023-03-26T09:08:14;0.93;;;0.40;;
35679;SDS011;21803;53.586;10.040;2023-03-26T09:19:35;0.55;;;0.40;;
35679;SDS011;21803;53.586;10.040;2023-03-26T09:28:08;1.48;;;0.50;;
35679;SDS011;21803;53.586;10.040;2023-03-26T09:30:50;0.55;;;0.40;;
35679;SDS011;21803;53.586;10.040;2023-03-26T09:36:29;1.13;;;0.52;;
35679;SDS011;21803;53.586;10.040;2023-03-26T09:50:08;1.00;;;0.60;;
35679;SDS011;21803;53.586;10.040;2023-03-26T09:52:56;1.23;;;0.40;;
35679;SDS011;21803;53.586;10.040;2023-03-26T09:55:43;1.42;;;0.65;;
35679;SDS011;21803;53.586;10.040;2023-03-26T10:00:57;0.80;;;0.50;;
35679;SDS011;21803;53.586;10.040;2023-03-26T10:14:31;0.73;;;0.50;;
35679;SDS011;21803;53.586;10.040;2023-03-26T10:33:11;4.53;;;1.08;;
35679;SDS011;21803;53.586;10.040;2023-03-26T10:36:07;1.95;;;1.00;;
35679;SDS011;21803;53.586;10.040;2023-03-26T10:41:40;2.45;;;1.00;;
35679;SDS011;21803;53.586;10.040;2023-03-26T10:49:17;3.17;;;0.65;;
35679;SDS011;21803;53.586;10.040;2023-03-26T10:51:46;4.35;;;1.02;;
35679;SDS011;21803;53.586;10.040;2023-03-26T10:57:21;3.20;;;0.88;;
35679;SDS011;21803;53.586;10.040;2023-03-26T11:00:00;3.17;;;1.10;;
35679;SDS011;21803;53.586;10.040;2023-03-26T11:05:29;2.88;;;1.02;;
35679;SDS011;21803;53.586;10.040;2023-03-26T11:08:09;2.35;;;0.98;;
35679;SDS011;21803;53.586;10.040;2023-03-26T11:10:48;3.25;;;1.08;;
35679;SDS011;21803;53.586;10.040;2023-03-26T11:13:34;2.78;;;1.15;;
35679;SDS011;21803;53.586;10.040;2023-03-26T11:19:02;2.10;;;1.05;;
35679;SDS011;21803;53.586;10.040;2023-03-26T11:33:34;3.92;;;1.23;;
35679;SDS011;21803;53.586;10.040;2023-03-26T11:36:07;2.70;;;1.10;;
35679;SDS011;21803;53.586;10.040;2023-03-26T11:38:40;2.50;;;1.00;;
35679;SDS011;21803;53.586;10.040;2023-03-26T11:41:12;3.92;;;1.15;;
35679;SDS011;21803;53.586;10.040;2023-03-26T11:43:44;2.70;;;0.90;;
35679;SDS011;21803;53.586;10.040;2023-03-26T11:46:16;2.45;;;1.05;;
35679;SDS011;21803;53.586;10.040;2023-03-26T11:49:06;3.40;;;1.25;;
35679;SDS011;21803;53.586;10.040;2023-03-26T11:51:35;3.00;;;0.90;;
35679;SDS011;21803;53.586;10.040;2023-03-26T11:54:03;1.85;;;0.75;;
35679;SDS011;21803;53.586;10.040;2023-03-26T11:59:18;2.20;;;0.98;;
35679;SDS011;21803;53.586;10.040;2023-03-26T12:01:50;4.63;;;0.93;;
35679;SDS011;21803;53.586;10.040;2023-03-26T12:04:38;3.47;;;1.17;;
35679;SDS011;21803;53.586;10.040;2023-03-26T12:07:08;3.63;;;1.13;;
35679;SDS011;21803;53.586;10.040;2023-03-26T12:09:50;2.95;;;1.10;;
35679;SDS011;21803;53.586;10.040;2023-03-26T12:12:18;3.67;;;1.20;;
35679;SDS011;21803;53.586;10.040;2023-03-26T12:14:45;3.20;;;1.10;;
35679;SDS011;21803;53.586;10.040;2023-03-26T12:17:12;1.88;;;0.80;;
35679;SDS011;21803;53.586;10.040;2023-03-26T12:19:48;2.83;;;1.00;;
35679;SDS011;21803;53.586;10.040;2023-03-26T12:22:33;2.45;;;0.90;;
35679;SDS011;21803;53.586;10.040;2023-03-26T12:27:33;3.08;;;1.15;;
35679;SDS011;21803;53.586;10.040;2023-03-26T12:30:08;2.03;;;0.90;;
35679;SDS011;21803;53.586;10.040;2023-03-26T12:32:39;2.97;;;1.10;;
35679;SDS011;21803;53.586;10.040;2023-03-26T12:35:06;2.90;;;1.00;;
35679;SDS011;21803;53.586;10.040;2023-03-26T12:37:42;1.63;;;0.80;;
35679;SDS011;21803;53.586;10.040;2023-03-26T12:42:56;3.17;;;0.70;;
35679;SDS011;21803;53.586;10.040;2023-03-26T12:45:43;2.40;;;1.00;;
35679;SDS011;21803;53.586;10.040;2023-03-26T12:48:09;1.73;;;0.75;;
35679;SDS011;21803;53.586;10.040;2023-03-26T12:50:43;1.95;;;1.08;;
35679;SDS011;21803;53.586;10.040;2023-03-26T12:58:48;2.20;;;0.80;;
35679;SDS011;21803;53.586;10.040;2023-03-26T13:01:36;2.13;;;0.80;;
35679;SDS011;21803;53.586;10.040;2023-03-26T13:06:53;1.77;;;0.90;;
35679;SDS011;21803;53.586;10.040;2023-03-26T13:15:11;1.88;;;0.75;;
35679;SDS011;21803;53.586;10.040;2023-03-26T13:17:49;1.83;;;0.70;;
35679;SDS011;21803;53.586;10.040;2023-03-26T13:20:20;2.28;;;0.90;;
35679;SDS011;21803;53.586;10.040;2023-03-26T13:23:02;1.20;;;0.75;;
35679;SDS011;21803;53.586;10.040;2023-03-26T13:28:39;1.55;;;0.75;;
35679;SDS011;21803;53.586;10.040;2023-03-26T13:37:35;4.07;;;0.80;;
35679;SDS011;21803;53.586;10.040;2023-03-26T13:43:18;2.80;;;0.93;;
35679;SDS011;21803;53.586;10.040;2023-03-26T13:48:18;1.75;;;0.80;;
35679;SDS011;21803;53.586;10.040;2023-03-26T13:53:39;2.53;;;1.05;;
35679;SDS011;21803;53.586;10.040;2023-03-26T13:56:09;0.82;;;0.60;;
35679;SDS011;21803;53.586;10.040;2023-03-26T13:58:47;2.10;;;0.88;;
35679;SDS011;21803;53.586;10.040;2023-03-26T14:01:20;2.20;;;0.95;;
35679;SDS011;21803;53.586;10.040;2023-03-26T14:07:00;1.52;;;0.80;;
35679;SDS011;21803;53.586;10.040;2023-03-26T14:12:43;1.02;;;0.70;;
35679;SDS011;21803;53.586;10.040;2023-03-26T14:15:40;1.42;;;0.65;;
35679;SDS011;21803;53.586;10.040;2023-03-26T14:26:44;1.17;;;0.70;;
35679;SDS011;21803;53.586;10.040;2023-03-26T14:35:18;2.42;;;0.90;;
35679;SDS011;21803;53.586;10.040;2023-03-26T14:37:59;1.42;;;0.70;;
35679;SDS011;21803;53.586;10.040;2023-03-26T14:41:00;2.42;;;0.98;;
35679;SDS011;21803;53.586;10.040;2023-03-26T14:43:42;1.30;;;0.77;;
35679;SDS011;21803;53.586;10.040;2023-03-26T14:49:40;2.33;;;0.70;;
35679;SDS011;21803;53.586;10.040;2023-03-26T14:52:35;1.25;;;0.70;;
35679;SDS011;21803;53.586;10.040;2023-03-26T14:55:11;1.08;;;0.70;;
35679;SDS011;21803;53.586;10.040;2023-03-26T15:12:09;0.77;;;0.63;;
35679;SDS011;21803;53.586;10.040;2023-03-26T15:14:56;2.28;;;0.93;;
35679;SDS011;21803;53.586;10.040;2023-03-26T15:37:35;2.17;;;0.90;;
35679;SDS011;21803;53.586;10.040;2023-03-26T15:49:15;1.08;;;0.55;;
35679;SDS011;21803;53.586;10.040;2023-03-26T15:55:01;1.10;;;0.57;;
35679;SDS011;21803;53.586;10.040;2023-03-26T15:57:57;1.45;;;0.60;;
35679;SDS011;21803;53.586;10.040;2023-03-26T16:00:33;1.60;;;0.80;;
35679;SDS011;21803;53.586;10.040;2023-03-26T16:03:18;2.15;;;0.82;;
35679;SDS011;21803;53.586;10.040;2023-03-26T16:06:21;2.10;;;0.90;;
35679;SDS011;21803;53.586;10.040;2023-03-26T16:16:59;1.52;;;0.63;;
35679;SDS011;21803;53.586;10.040;2023-03-26T16:22:10;1.20;;;0.57;;
35679;SDS011;21803;53.586;10.040;2023-03-26T16:24:42;0.95;;;0.55;;
35679;SDS011;21803;53.586;10.040;2023-03-26T16:32:26;1.08;;;0.60;;
35679;SDS011;21803;53.586;10.040;2023-03-26T16:34:57;3.63;;;0.80;;
35679;SDS011;21803;53.586;10.040;2023-03-26T16:45:42;1.83;;;0.80;;
35679;SDS011;21803;53.586;10.040;2023-03-26T16:48:49;2.00;;;0.70;;
35679;SDS011;21803;53.586;10.040;2023-03-26T16:57:19;1.75;;;0.63;;
35679;SDS011;21803;53.586;10.040;2023-03-26T17:00:04;1.70;;;0.80;;
35679;SDS011;21803;53.586;10.040;2023-03-26T17:02:56;1.00;;;0.65;;
35679;SDS011;21803;53.586;10.040;2023-03-26T17:05:38;2.42;;;0.80;;
35679;SDS011;21803;53.586;10.040;2023-03-26T17:08:17;1.13;;;0.65;;
35679;SDS011;21803;53.586;10.040;2023-03-26T17:13:54;1.30;;;0.60;;
35679;SDS011;21803;53.586;10.040;2023-03-26T17:16:33;1.52;;;0.43;;
35679;SDS011;21803;53.586;10.040;2023-03-26T17:22:07;1.10;;;0.52;;
35679;SDS011;21803;53.586;10.040;2023-03-26T17:33:10;1.20;;;0.70;;
35679;SDS011;21803;53.586;10.040;2023-03-26T17:35:44;1.48;;;0.60;;
35679;SDS011;21803;53.586;10.040;2023-03-26T17:43:32;1.70;;;0.77;;
35679;SDS011;21803;53.586;10.040;2023-03-26T17:45:59;1.30;;;0.63;;
35679;SDS011;21803;53.586;10.040;2023-03-26T17:48:36;1.33;;;0.90;;
35679;SDS011;21803;53.586;10.040;2023-03-26T17:54:14;0.80;;;0.50;;
35679;SDS011;21803;53.586;10.040;2023-03-26T17:57:17;2.47;;;0.70;;
35679;SDS011;21803;53.586;10.040;2023-03-26T18:00:05;1.40;;;0.60;;
35679;SDS011;21803;53.586;10.040;2023-03-26T18:02:34;1.35;;;0.82;;
35679;SDS011;21803;53.586;10.040;2023-03-26T18:05:07;1.88;;;0.82;;
35679;SDS011;21803;53.586;10.040;2023-03-26T18:07:48;0.77;;;0.47;;
35679;SDS011;21803;53.586;10.040;2023-03-26T18:16:17;0.82;;;0.60;;
35679;SDS011;21803;53.586;10.040;2023-03-26T18:18:57;0.88;;;0.68;;
35679;SDS011;21803;53.586;10.040;2023-03-26T18:21:31;0.73;;;0.63;;
35679;SDS011;21803;53.586;10.040;2023-03-26T18:24:00;1.08;;;0.50;;
35679;SDS011;21803;53.586;10.040;2023-03-26T18:26:31;1.48;;;0.50;;
35679;SDS011;21803;53.586;10.040;2023-03-26T18:31:55;1.17;;;0.50;;
35679;SDS011;21803;53.586;10.040;2023-03-26T18:34:30;0.60;;;0.50;;
35679;SDS011;21803;53.586;10.040;2023-03-26T18:39:23;0.82;;;0.38;;
35679;SDS011;21803;53.586;10.040;2023-03-26T18:41:49;0.88;;;0.60;;
35679;SDS011;21803;53.586;10.040;2023-03-26T18:44:15;1.27;;;0.70;;
35679;SDS011;21803;53.586;10.040;2023-03-26T18:46:42;0.52;;;0.40;;
35679;SDS011;21803;53.586;10.040;2023-03-26T18:49:09;1.17;;;0.65;;
35679;SDS011;21803;53.586;10.040;2023-03-26T18:51:37;0.52;;;0.43;;
35679;SDS011;21803;53.586;10.040;2023-03-26T18:54:04;1.92;;;0.80;;
35679;SDS011;21803;53.586;10.040;2023-03-26T18:56:34;1.15;;;0.75;;
35679;SDS011;21803;53.586;10.040;2023-03-26T18:59:02;1.30;;;0.57;;
35679;SDS011;21803;53.586;10.040;2023-03-26T19:01:31;1.08;;;0.55;;
35679;SDS011;21803;53.586;10.040;2023-03-26T19:04:01;1.30;;;0.70;;
35679;SDS011;21803;53.586;10.040;2023-03-26T19:06:30;1.15;;;0.63;;
35679;SDS011;21803;53.586;10.040;2023-03-26T19:09:03;1.05;;;0.68;;
35679;SDS011;21803;53.586;10.040;2023-03-26T19:11:30;1.05;;;0.52;;
35679;SDS011;21803;53.586;10.040;2023-03-26T19:13:59;1.75;;;0.60;;
35679;SDS011;21803;53.586;10.040;2023-03-26T19:16:32;0.85;;;0.40;;
35679;SDS011;21803;53.586;10.040;2023-03-26T19:19:04;0.75;;;0.45;;
35679;SDS011;21803;53.586;10.040;2023-03-26T19:21:32;0.95;;;0.55;;
35679;SDS011;21803;53.586;10.040;2023-03-26T19:23:58;1.40;;;0.55;;
35679;SDS011;21803;53.586;10.040;2023-03-26T19:26:25;1.27;;;0.60;;
35679;SDS011;21803;53.586;10.040;2023-03-26T19:28:52;1.25;;;0.60;;
35679;SDS011;21803;53.586;10.040;2023-03-26T19:31:23;1.15;;;0.52;;
35679;SDS011;21803;53.586;10.040;2023-03-26T19:33:56;0.80;;;0.60;;
35679;SDS011;21803;53.586;10.040;2023-03-26T19:39:47;2.22;;;0.43;;
35679;SDS011;21803;53.586;10.040;2023-03-26T19:44:51;1.52;;;0.65;;
35679;SDS011;21803;53.586;10.040;2023-03-26T19:47:19;0.40;;;0.40;;
35679;SDS011;21803;53.586;10.040;2023-03-26T19:49:57;0.70;;;0.50;;
35679;SDS011;21803;53.586;10.040;2023-03-26T19:52:31;1.40;;;0.60;;
35679;SDS011;21803;53.586;10.040;2023-03-26T19:55:01;0.57;;;0.40;;
35679;SDS011;21803;53.586;10.040;2023-03-26T19:57:39;0.47;;;0.43;;
35679;SDS011;21803;53.586;10.040;2023-03-26T20:00:04;0.77;;;0.50;;
35679;SDS011;21803;53.586;10.040;2023-03-26T20:02:37;0.75;;;0.40;;
35679;SDS011;21803;53.586;10.040;2023-03-26T20:05:03;1.05;;;0.57;;
35679;SDS011;21803;53.586;10.040;2023-03-26T20:07:30;0.77;;;0.40;;
35679;SDS011;21803;53.586;10.040;2023-03-26T20:09:58;0.70;;;0.40;;
35679;SDS011;21803;53.586;10.040;2023-03-26T20:12:23;1.17;;;0.50;;
35679;SDS011;21803;53.586;10.040;2023-03-26T20:14:49;0.80;;;0.50;;
35679;SDS011;21803;53.586;10.040;2023-03-26T20:17:16;2.08;;;0.60;;
35679;SDS011;21803;53.586;10.040;2023-03-26T20:19:43;1.10;;;0.60;;
35679;SDS011;21803;53.586;10.040;2023-03-26T20:22:11;0.70;;;0.40;;
35679;SDS011;21803;53.586;10.040;2023-03-26T20:24:39;1.15;;;0.50;;
35679;SDS011;21803;53.586;10.040;2023-03-26T20:27:05;0.50;;;0.43;;
35679;SDS011;21803;53.586;10.040;2023-03-26T20:29:31;0.95;;;0.40;;
35679;SDS011;21803;53.586;10.040;2023-03-26T20:31:56;1.05;;;0.55;;
35679;SDS011;21803;53.586;10.040;2023-03-26T20:34:22;0.95;;;0.57;;
35679;SDS011;21803;53.586;10.040;2023-03-26T20:36:48;0.40;;;0.40;;
35679;SDS011;21803;53.586;10.040;2023-03-26T20:39:21;0.60;;;0.52;;
35679;SDS011;21803;53.586;10.040;2023-03-26T20:41:48;1.35;;;0.60;;
35679;SDS011;21803;53.586;10.040;2023-03-26T20:44:15;1.20;;;0.47;;
35679;SDS011;21803;53.586;10.040;2023-03-26T20:46:43;0.63;;;0.40;;
35679;SDS011;21803;53.586;10.040;2023-03-26T20:49:09;0.73;;;0.50;;
35679;SDS011;21803;53.586;10.040;2023-03-26T20:51:38;0.43;;;0.40;;
35679;SDS011;21803;53.586;10.040;2023-03-26T20:54:06;0.95;;;0.43;;
35679;SDS011;21803;53.586;10.040;2023-03-26T20:56:40;0.85;;;0.47;;
35679;SDS011;21803;53.586;10.040;2023-03-26T20:59:06;0.50;;;0.40;;
